Time;durP1;ratioP1;P1;durP2;ratioP2;P2;SDS_P1;SDS_P2;PMS_P1;PMS_P2;Temp;Humidity;BMP_temperature;BMP_pressure;BME280_temperature;BME280_humidity;BME280_pressure;Samples;Min_cycle;Max_cycle;Signal;HPM_P1;HPM_P2
2021/07/23 00:00:17;;;;;;;15.50;6.45;;;;;;;14.63;86.07;95206.81;5113294;27;20032;-65
2021/07/23 00:02:44;;;;;;;6.93;5.55;;;;;;;14.68;86.26;95225.19;5095147;28;20077;-64
2021/07/23 00:05:11;;;;;;;6.75;5.10;;;;;;;14.65;86.16;95224.91;5113612;27;20038;-64
2021/07/23 00:07:38;;;;;;;7.32;6.18;;;;;;;14.57;86.33;95223.50;5114772;27;20115;-63
2021/07/23 00:10:05;;;;;;;8.88;6.50;;;;;;;14.47;86.50;95218.13;5110484;28;20043;-63
2021/07/23 00:12:32;;;;;;;10.25;6.93;;;;;;;14.49;87.42;95221.28;5111798;27;20116;-64
2021/07/23 00:14:59;;;;;;;8.98;6.50;;;;;;;14.38;87.86;95203.88;5114807;27;20043;-64
2021/07/23 00:17:25;;;;;;;18.00;6.10;;;;;;;14.43;87.84;95217.03;5110374;27;20061;-64
2021/07/23 00:19:52;;;;;;;8.77;6.30;;;;;;;14.42;87.63;95218.06;5093674;27;20048;-64
2021/07/23 00:22:19;;;;;;;6.82;6.13;;;;;;;14.42;87.24;95225.94;5111987;27;20047;-63
2021/07/23 00:24:46;;;;;;;8.63;6.05;;;;;;;14.34;87.30;95214.84;5111780;27;20031;-64
2021/07/23 00:27:16;;;;;;;7.65;5.47;;;;;;;14.30;87.25;95212.97;5110027;27;20519;-64
2021/07/23 00:29:44;;;;;;;9.93;6.45;;;;;;;14.30;87.62;95226.84;5112595;27;20511;-64
2021/07/23 00:32:11;;;;;;;7.93;5.85;;;;;;;14.29;87.91;95227.88;5110359;27;20118;-64
2021/07/23 00:34:38;;;;;;;11.35;5.47;;;;;;;14.15;87.66;95221.41;5112745;27;20036;-63
2021/07/23 00:37:05;;;;;;;7.72;5.70;;;;;;;14.13;89.66;95234.78;5096075;28;20517;-64
2021/07/23 00:39:32;;;;;;;8.68;7.25;;;;;;;13.96;90.94;95234.81;5094171;27;20126;-63
2021/07/23 00:41:58;;;;;;;8.20;5.82;;;;;;;14.03;90.51;95233.88;5114309;27;20390;-64
2021/07/23 00:44:27;;;;;;;9.38;6.20;;;;;;;14.01;89.93;95231.47;5095575;27;20043;-64
2021/07/23 00:46:57;;;;;;;8.35;6.13;;;;;;;14.05;89.33;95221.31;5111333;27;20040;-63
2021/07/23 00:49:27;;;;;;;11.00;6.72;;;;;;;14.06;89.11;95225.50;5094653;27;20053;-64
2021/07/23 00:51:55;;;;;;;11.25;5.82;;;;;;;14.01;89.41;95214.97;5095726;27;20047;-64
2021/07/23 00:54:22;;;;;;;13.55;6.13;;;;;;;14.00;88.96;95229.09;5112093;27;20051;-64
2021/07/23 00:56:49;;;;;;;11.65;6.10;;;;;;;13.90;88.99;95214.84;5095481;27;20055;-65
2021/07/23 00:59:17;;;;;;;8.95;5.55;;;;;;;13.88;89.05;95214.31;5112219;27;20389;-64
2021/07/23 01:01:45;;;;;;;9.98;5.93;;;;;;;13.81;89.56;95211.06;5092920;27;20088;-64
2021/07/23 01:04:13;;;;;;;9.02;5.13;;;;;;;13.82;90.09;95212.63;5114536;27;20043;-64
2021/07/23 01:06:40;;;;;;;10.38;5.72;;;;;;;13.82;89.39;95206.59;5115523;27;20036;-64
2021/07/23 01:09:09;;;;;;;6.80;5.80;;;;;;;13.81;89.41;95211.06;5109587;27;20039;-64
2021/07/23 01:11:38;;;;;;;7.72;6.40;;;;;;;13.77;89.99;95215.19;5109214;27;20101;-63
2021/07/23 01:14:17;;;;;;;11.10;5.82;;;;;;;13.70;89.69;95209.31;5079554;28;20039;-63
2021/07/23 01:16:44;;;;;;;10.57;6.25;;;;;;;13.69;89.35;95202.50;5094114;27;20043;-63
2021/07/23 01:19:11;;;;;;;9.60;5.57;;;;;;;13.71;89.13;95216.94;5096910;27;20122;-64
2021/07/23 01:21:45;;;;;;;12.32;5.80;;;;;;;13.70;89.13;95219.78;5091928;27;20054;-63
2021/07/23 01:24:13;;;;;;;15.32;6.28;;;;;;;13.67;89.90;95215.06;5094484;27;20066;-63
2021/07/23 01:26:48;;;;;;;9.82;6.20;;;;;;;13.61;89.85;95206.31;5092310;28;20071;-63
2021/07/23 01:29:23;;;;;;;6.88;5.85;;;;;;;13.54;89.85;95201.28;5092048;28;20047;-63
2021/07/23 01:31:50;;;;;;;10.27;5.93;;;;;;;13.62;90.32;95212.38;5110604;27;20048;-63
2021/07/23 01:34:16;;;;;;;9.07;6.25;;;;;;;13.58;90.51;95214.66;5110482;27;20043;-63
2021/07/23 01:36:44;;;;;;;9.68;6.30;;;;;;;13.58;90.47;95209.44;5110607;27;20089;-63
2021/07/23 01:39:14;;;;;;;9.80;6.05;;;;;;;13.54;90.40;95201.28;5094981;28;20056;-63
2021/07/23 01:41:42;;;;;;;12.30;6.05;;;;;;;13.56;90.34;95209.66;5093102;28;20043;-63
2021/07/23 01:44:09;;;;;;;8.35;5.97;;;;;;;13.56;90.99;95209.66;5107655;27;20047;-63
2021/07/23 01:46:36;;;;;;;11.75;6.15;;;;;;;13.52;91.09;95198.09;5112942;27;20504;-63
2021/07/23 01:49:08;;;;;;;12.10;5.82;;;;;;;13.50;91.12;95204.59;5094053;27;20112;-63
2021/07/23 01:51:38;;;;;;;10.35;5.63;;;;;;;13.46;91.51;95212.13;5111655;27;20140;-64
2021/07/23 01:54:17;;;;;;;9.20;6.05;;;;;;;13.42;91.13;95203.19;5091880;28;20576;-64
2021/07/23 01:56:46;;;;;;;10.10;6.75;;;;;;;13.38;91.50;95196.84;5111158;27;20062;-63
2021/07/23 01:59:17;;;;;;;12.50;6.25;;;;;;;13.34;91.67;95201.75;5091052;28;20097;-63
2021/07/23 02:01:44;;;;;;;10.27;5.82;;;;;;;13.33;91.23;95209.84;5114521;27;20174;-64
2021/07/23 02:04:27;;;;;;;14.55;6.28;;;;;;;13.31;90.90;95206.69;5094780;28;20126;-63
2021/07/23 02:06:54;;;;;;;7.22;5.95;;;;;;;13.31;91.46;95196.22;5113848;27;20036;-64
2021/07/23 02:09:23;;;;;;;8.82;6.55;;;;;;;13.23;91.43;95201.81;5094370;28;20039;-64
2021/07/23 02:11:55;;;;;;;10.63;6.57;;;;;;;13.28;91.18;95209.72;5081584;27;20051;-63
2021/07/23 02:14:29;;;;;;;9.80;6.68;;;;;;;13.26;91.41;95204.72;5092668;28;20143;-64
2021/07/23 02:16:59;;;;;;;10.18;6.32;;;;;;;13.20;92.29;95184.78;5094938;28;20119;-63
2021/07/23 02:19:27;;;;;;;7.85;6.10;;;;;;;13.28;92.78;95207.13;5093857;28;20079;-63
2021/07/23 02:22:05;;;;;;;9.20;6.70;;;;;;;13.29;91.96;95208.69;5094354;28;20455;-62
2021/07/23 02:24:32;;;;;;;9.85;5.95;;;;;;;13.24;91.66;95201.56;5075942;28;20509;-63
2021/07/23 02:26:59;;;;;;;9.05;6.05;;;;;;;13.23;91.17;95209.66;5088313;28;20100;-63
2021/07/23 02:29:26;;;;;;;8.82;6.25;;;;;;;13.15;90.98;95198.56;5095355;28;20050;-63
2021/07/23 02:32:00;;;;;;;8.55;5.50;;;;;;;13.22;91.20;95205.44;5090034;28;20101;-63
2021/07/23 02:34:29;;;;;;;11.95;6.28;;;;;;;13.16;91.52;95202.75;5089821;28;20040;-64
2021/07/23 02:36:57;;;;;;;14.48;6.30;;;;;;;13.00;91.97;95199.09;5093017;28;20089;-63
2021/07/23 02:39:25;;;;;;;10.00;6.53;;;;;;;12.98;92.28;95202.97;5113925;28;20039;-64
2021/07/23 02:41:57;;;;;;;10.80;7.00;;;;;;;13.00;92.41;95206.16;5092402;28;20527;-63
2021/07/23 02:44:25;;;;;;;12.52;7.25;;;;;;;12.92;93.41;95203.94;5089666;28;20047;-64
2021/07/23 02:46:52;;;;;;;12.68;6.28;;;;;;;12.96;93.43;95210.25;5110486;28;20066;-64
2021/07/23 02:49:20;;;;;;;15.25;6.82;;;;;;;12.92;94.48;95209.16;5109385;28;20370;-64
2021/07/23 02:51:50;;;;;;;13.27;7.57;;;;;;;12.82;95.88;95205.34;5096417;28;20134;-64
2021/07/23 02:54:18;;;;;;;10.93;6.65;;;;;;;12.84;95.31;95214.75;5093390;27;20059;-64
2021/07/23 02:56:46;;;;;;;9.82;6.40;;;;;;;12.71;95.71;95203.59;5097588;28;20050;-63
2021/07/23 02:59:14;;;;;;;8.20;6.95;;;;;;;12.80;96.24;95207.41;5111707;27;20075;-64
2021/07/23 03:01:47;;;;;;;8.15;6.75;;;;;;;12.88;95.07;95213.28;5096352;27;20039;-64
2021/07/23 03:04:22;;;;;;;13.52;5.75;;;;;;;12.86;94.71;95204.88;5094597;27;20039;-64
2021/07/23 03:06:49;;;;;;;8.20;7.10;;;;;;;12.80;94.77;95204.78;5077907;28;20549;-63
2021/07/23 03:09:18;;;;;;;14.68;7.40;;;;;;;12.80;94.58;95202.19;5096754;27;20134;-64
2021/07/23 03:11:44;;;;;;;9.50;7.32;;;;;;;12.82;94.79;95204.56;5095141;27;20424;-65
2021/07/23 03:14:11;;;;;;;9.98;6.88;;;;;;;12.61;95.84;95192.94;5115438;27;20114;-64
2021/07/23 03:16:52;;;;;;;10.15;6.07;;;;;;;12.61;96.20;95203.41;5117085;27;20501;-63
2021/07/23 03:19:19;;;;;;;9.55;7.25;;;;;;;12.66;95.43;95205.28;5113294;27;20039;-63
2021/07/23 03:21:47;;;;;;;9.77;6.15;;;;;;;12.67;95.04;95210.28;5117767;27;20130;-64
2021/07/23 03:24:16;;;;;;;8.88;6.28;;;;;;;12.71;94.52;95218.44;5094657;28;20047;-64
2021/07/23 03:26:43;;;;;;;11.57;6.78;;;;;;;12.68;94.08;95204.06;5111903;27;20104;-63
2021/07/23 03:29:11;;;;;;;20.15;6.93;;;;;;;12.68;93.85;95204.06;5096111;28;20420;-63
2021/07/23 03:31:39;;;;;;;12.95;6.50;;;;;;;12.72;93.80;95213.00;5097139;27;20126;-64
2021/07/23 03:34:13;;;;;;;10.57;6.25;;;;;;;12.75;93.13;95207.31;5093526;28;20043;-65
2021/07/23 03:36:58;;;;;;;15.93;7.65;;;;;;;12.77;93.45;95213.09;5120022;27;20562;-64
2021/07/23 03:39:43;;;;;;;11.88;8.23;;;;;;;12.77;93.40;95218.31;5114469;27;20050;-64
2021/07/23 03:42:13;;;;;;;9.52;6.50;;;;;;;12.78;93.62;95219.91;5095419;27;20585;-64
2021/07/23 03:44:49;;;;;;;13.65;6.90;;;;;;;12.76;93.76;95202.88;5096130;28;20043;-63
2021/07/23 03:47:18;;;;;;;27.02;7.82;;;;;;;12.80;93.78;95217.84;5096481;27;20050;-63
2021/07/23 03:49:46;;;;;;;12.63;7.43;;;;;;;12.84;94.59;95214.75;5114325;27;20061;-64
2021/07/23 03:52:14;;;;;;;12.55;8.55;;;;;;;12.85;95.83;95211.13;5093447;28;20044;-64
2021/07/23 03:55:05;;;;;;;9.48;7.13;;;;;;;12.89;95.82;95220.06;5117869;27;20040;-64
2021/07/23 03:57:31;;;;;;;19.98;9.57;;;;;;;12.87;95.55;95217.69;5115552;27;20136;-65
2021/07/23 03:59:58;;;;;;;12.38;7.63;;;;;;;12.89;95.79;95214.84;5097583;27;20867;-64
2021/07/23 04:02:26;;;;;;;11.25;7.47;;;;;;;12.93;96.11;95208.13;5094098;28;20080;-64
2021/07/23 04:04:53;;;;;;;10.35;7.53;;;;;;;12.94;97.06;95201.88;5110664;28;20519;-64
2021/07/23 04:07:20;;;;;;;16.15;7.30;;;;;;;13.06;97.21;95210.44;5096452;27;20042;-64
2021/07/23 04:09:48;;;;;;;11.55;7.97;;;;;;;13.06;97.25;95220.91;5097066;27;20159;-64
2021/07/23 04:12:18;;;;;;;9.32;6.55;;;;;;;13.07;97.04;95209.41;5095197;27;20044;-66
2021/07/23 04:14:46;;;;;;;14.18;7.47;;;;;;;13.15;96.91;95214.25;5095477;28;20521;-64
2021/07/23 04:17:12;;;;;;;8.25;6.75;;;;;;;13.16;96.72;95209.78;5093717;28;20051;-65
2021/07/23 04:19:41;;;;;;;11.52;6.70;;;;;;;13.20;96.78;95214.34;5093656;27;20047;-65
2021/07/23 04:22:09;;;;;;;11.90;6.97;;;;;;;13.29;96.73;95213.91;5093871;28;20039;-65
2021/07/23 04:24:44;;;;;;;12.55;7.47;;;;;;;13.36;96.96;95220.63;5093553;28;20517;-64
2021/07/23 04:27:13;;;;;;;13.57;7.40;;;;;;;13.45;96.93;95218.41;5094714;27;20035;-66
2021/07/23 04:29:58;;;;;;;11.27;7.03;;;;;;;13.50;97.45;95221.06;5091543;28;20593;-65
2021/07/23 04:32:25;;;;;;;8.30;6.55;;;;;;;13.52;97.95;95208.56;5095540;27;20050;-65
2021/07/23 04:34:53;;;;;;;10.00;6.20;;;;;;;13.68;97.99;95211.38;5113696;27;20047;-64
2021/07/23 04:37:20;;;;;;;13.25;6.80;;;;;;;13.79;97.42;95218.34;5111696;27;20044;-65
2021/07/23 04:40:16;;;;;;;14.82;7.47;;;;;;;13.80;98.48;95217.31;5107276;27;20135;-65
2021/07/23 04:42:43;;;;;;;8.93;6.57;;;;;;;13.90;97.91;95204.38;5111297;27;20416;-65
2021/07/23 04:45:12;;;;;;;8.23;6.47;;;;;;;13.98;98.37;95215.47;5093274;28;20039;-65
2021/07/23 04:47:49;;;;;;;11.65;6.75;;;;;;;14.05;98.09;95205.59;5093995;27;20085;-65
2021/07/23 04:50:16;;;;;;;11.02;6.90;;;;;;;14.12;98.54;95206.22;5091227;28;20048;-65
2021/07/23 04:53:16;;;;;;;8.60;6.95;;;;;;;14.25;98.46;95205.84;5064340;28;20142;-65
2021/07/23 04:55:58;;;;;;;7.00;6.30;;;;;;;14.28;99.16;95200.13;5097733;27;20036;-65
2021/07/23 04:58:30;;;;;;;14.13;7.47;;;;;;;14.38;97.97;95193.41;5115019;27;20884;-64
2021/07/23 05:00:57;;;;;;;6.65;5.97;;;;;;;14.56;97.52;95203.56;5110492;27;20028;-66
2021/07/23 05:03:34;;;;;;;7.00;6.13;;;;;;;14.62;96.55;95194.75;5111286;27;20401;-65
2021/07/23 05:06:08;;;;;;;9.88;6.35;;;;;;;14.74;96.44;95191.19;5092712;28;20036;-65
2021/07/23 05:08:36;;;;;;;8.57;5.93;;;;;;;14.78;95.46;95192.25;5092330;27;20090;-65
2021/07/23 05:11:08;;;;;;;10.95;8.90;;;;;;;14.91;95.65;95194.50;5090397;28;20513;-65
2021/07/23 05:13:36;;;;;;;9.73;6.10;;;;;;;15.02;94.99;95192.75;5089254;28;20040;-65
2021/07/23 05:16:04;;;;;;;15.75;5.97;;;;;;;15.08;94.22;95187.28;5090514;27;20038;-65
2021/07/23 05:18:33;;;;;;;11.60;7.10;;;;;;;15.22;93.14;95192.13;5107389;28;20070;-65
2021/07/23 05:21:00;;;;;;;16.65;5.60;;;;;;;15.21;91.45;95185.28;5109698;27;20046;-66
2021/07/23 05:23:27;;;;;;;7.03;5.55;;;;;;;15.38;91.27;95195.66;5091337;28;20471;-65
2021/07/23 05:25:54;;;;;;;6.30;5.20;;;;;;;15.49;90.45;95198.06;5092412;28;20062;-66
2021/07/23 05:28:20;;;;;;;8.30;5.07;;;;;;;15.59;90.93;95186.88;5108485;27;20039;-66
2021/07/23 05:31:05;;;;;;;7.07;5.40;;;;;;;15.76;90.27;95197.22;5112923;27;20031;-65
2021/07/23 05:33:32;;;;;;;7.38;4.95;;;;;;;15.84;89.87;95196.72;5111574;27;20039;-66
2021/07/23 05:35:58;;;;;;;7.10;5.85;;;;;;;15.98;88.48;95191.81;5111382;27;20043;-66
2021/07/23 05:38:25;;;;;;;9.50;6.20;;;;;;;16.11;87.70;95197.66;5091302;27;20044;-67
2021/07/23 05:40:52;;;;;;;8.60;5.70;;;;;;;16.19;86.42;95194.56;5108901;27;20120;-66
2021/07/23 05:43:19;;;;;;;11.57;5.82;;;;;;;16.26;85.97;95205.63;5110273;27;20040;-65
2021/07/23 05:45:46;;;;;;;11.45;5.25;;;;;;;16.31;85.38;95202.97;5110152;27;20405;-65
2021/07/23 05:48:13;;;;;;;9.90;5.43;;;;;;;16.30;86.00;95196.16;5109552;27;20036;-65
2021/07/23 05:50:40;;;;;;;12.43;6.40;;;;;;;16.39;86.25;95199.09;5109742;27;20074;-66
2021/07/23 05:53:07;;;;;;;9.38;5.90;;;;;;;16.40;87.46;95200.66;5109610;27;20131;-66
2021/07/23 05:55:35;;;;;;;16.40;6.07;;;;;;;16.50;85.30;95195.44;5108270;28;20040;-67
2021/07/23 05:58:01;;;;;;;10.43;5.57;;;;;;;16.59;83.66;95201.75;5109818;27;20461;-67
2021/07/23 06:00:28;;;;;;;11.05;6.53;;;;;;;16.68;83.14;95201.28;5109654;27;20035;-66
2021/07/23 06:03:02;;;;;;;13.23;6.45;;;;;;;16.63;83.38;95194.94;5107730;27;20071;-66
2021/07/23 06:05:29;;;;;;;10.27;6.18;;;;;;;16.81;83.03;95203.38;5107184;28;20047;-65
2021/07/23 06:07:56;;;;;;;14.25;6.82;;;;;;;16.93;83.31;95198.69;5110858;27;20043;-65
2021/07/23 06:10:23;;;;;;;9.88;6.68;;;;;;;17.02;82.49;95206.09;5108843;28;20123;-66
2021/07/23 06:12:50;;;;;;;13.38;6.50;;;;;;;17.06;82.97;95207.13;5110059;27;20043;-66
2021/07/23 06:15:16;;;;;;;9.45;6.60;;;;;;;17.05;83.20;95195.03;5108817;27;20039;-66
2021/07/23 06:17:43;;;;;;;11.25;6.75;;;;;;;17.09;83.80;95196.88;5108015;28;20094;-65
2021/07/23 06:20:11;;;;;;;14.27;6.45;;;;;;;17.18;82.56;95199.78;5112182;28;20762;-66
2021/07/23 06:22:37;;;;;;;11.80;6.28;;;;;;;17.27;82.31;95186.84;5110014;28;20047;-66
2021/07/23 06:25:05;;;;;;;10.63;6.47;;;;;;;17.37;82.11;95187.63;5092450;28;20421;-65
2021/07/23 06:27:31;;;;;;;11.52;6.32;;;;;;;17.57;80.93;95196.56;5107568;28;20497;-66
2021/07/23 06:29:58;;;;;;;9.80;6.18;;;;;;;17.54;80.15;95197.13;5106907;28;20058;-66
2021/07/23 06:32:28;;;;;;;16.17;5.93;;;;;;;17.54;79.52;95181.31;5108879;28;20047;-66
2021/07/23 06:34:55;;;;;;;11.90;6.97;;;;;;;17.63;80.01;95179.72;5109099;28;20051;-66
2021/07/23 06:37:23;;;;;;;11.95;6.00;;;;;;;17.75;79.69;95193.41;5088215;28;20059;-66
2021/07/23 06:39:50;;;;;;;13.80;5.75;;;;;;;17.81;79.47;95196.00;5107616;28;20050;-65
2021/07/23 06:42:20;;;;;;;19.33;5.40;;;;;;;18.06;81.71;95198.63;5107916;28;20046;-65
2021/07/23 06:44:50;;;;;;;15.57;7.22;;;;;;;18.27;78.23;95194.03;5075606;28;20044;-65
2021/07/23 06:47:20;;;;;;;18.40;7.57;;;;;;;18.33;77.91;95176.38;5106362;28;20051;-65
2021/07/23 06:49:48;;;;;;;21.73;6.65;;;;;;;18.49;78.14;95191.06;5108359;28;20043;-66
2021/07/23 06:52:15;;;;;;;17.17;6.28;;;;;;;18.54;76.27;95183.09;5109996;28;20042;-67
2021/07/23 06:54:43;;;;;;;16.23;5.80;;;;;;;18.68;76.05;95188.56;5089202;28;20051;-66
2021/07/23 06:57:10;;;;;;;15.73;7.45;;;;;;;18.77;74.83;95188.78;5107506;28;20495;-65
2021/07/23 06:59:37;;;;;;;12.07;5.75;;;;;;;18.86;73.08;95181.88;5107607;28;20044;-66
2021/07/23 07:02:04;;;;;;;20.75;5.55;;;;;;;18.91;72.97;95168.66;5111014;28;20062;-65
2021/07/23 07:04:31;;;;;;;10.07;5.55;;;;;;;19.04;72.00;95174.38;5092549;28;20052;-66
2021/07/23 07:06:59;;;;;;;10.75;5.00;;;;;;;19.22;73.36;95176.34;5109754;28;20072;-66
2021/07/23 07:09:27;;;;;;;17.25;5.82;;;;;;;19.36;72.33;95188.91;5108174;28;20438;-65
2021/07/23 07:12:00;;;;;;;6.93;5.18;;;;;;;19.53;71.02;95180.56;5108804;28;20048;-65
2021/07/23 07:14:27;;;;;;;15.52;6.28;;;;;;;19.64;69.94;95187.31;5109093;28;20413;-65
2021/07/23 07:16:55;;;;;;;19.40;6.35;;;;;;;19.74;71.51;95178.56;5107146;28;20511;-65
2021/07/23 07:19:22;;;;;;;13.73;5.82;;;;;;;19.83;71.36;95174.22;5107644;28;20043;-66
2021/07/23 07:21:50;;;;;;;23.15;5.50;;;;;;;20.01;72.04;95181.41;5110801;28;20050;-65
2021/07/23 07:24:18;;;;;;;17.35;5.53;;;;;;;20.10;69.67;95178.16;5110115;28;20045;-66
2021/07/23 07:26:47;;;;;;;17.10;5.82;;;;;;;20.25;69.70;95175.31;5108605;28;20114;-65
2021/07/23 07:29:15;;;;;;;8.48;4.85;;;;;;;20.40;68.69;95172.50;5107019;28;20044;-66
2021/07/23 07:31:41;;;;;;;9.98;4.80;;;;;;;20.48;68.00;95168.41;5085960;28;20046;-66
2021/07/23 07:34:09;;;;;;;13.70;4.97;;;;;;;20.47;68.27;95158.13;5103727;28;20426;-66
2021/07/23 07:36:35;;;;;;;7.28;5.40;;;;;;;20.70;68.01;95159.94;5088134;28;20031;-66
2021/07/23 07:39:03;;;;;;;12.55;4.30;;;;;;;20.96;66.04;95167.53;5104900;28;20036;-66
2021/07/23 07:41:30;;;;;;;11.27;4.18;;;;;;;21.13;65.04;95161.69;5108093;27;20118;-66
2021/07/23 07:43:58;;;;;;;11.23;5.25;;;;;;;21.23;64.26;95166.03;5110068;27;20050;-66
2021/07/23 07:46:24;;;;;;;12.20;4.85;;;;;;;21.33;64.91;95165.84;5108803;27;20044;-66
2021/07/23 07:48:52;;;;;;;11.32;4.47;;;;;;;21.67;65.50;95162.13;5112439;27;20052;-66
2021/07/23 07:51:19;;;;;;;8.30;4.43;;;;;;;21.94;63.40;95164.78;5109696;28;20059;-65
2021/07/23 07:53:46;;;;;;;10.65;4.05;;;;;;;22.14;61.71;95162.81;5110703;27;20412;-66
2021/07/23 07:56:13;;;;;;;13.80;4.43;;;;;;;22.25;60.92;95148.25;5109707;28;20042;-66
2021/07/23 07:58:40;;;;;;;13.88;4.43;;;;;;;22.69;60.80;95154.78;5109289;28;20512;-66
2021/07/23 08:01:08;;;;;;;9.25;4.18;;;;;;;22.99;59.73;95152.50;5110656;27;20039;-68
2021/07/23 08:03:36;;;;;;;15.43;4.38;;;;;;;23.08;57.93;95153.41;5108444;27;20039;-66
2021/07/23 08:06:22;;;;;;;16.52;4.60;;;;;;;23.22;57.41;95149.88;5091031;28;20035;-66
2021/07/23 08:08:50;;;;;;;10.63;4.25;;;;;;;23.40;56.50;95164.84;5093542;27;20476;-66
2021/07/23 08:11:17;;;;;;;9.93;4.32;;;;;;;23.57;55.57;95139.44;5109904;28;20046;-66
2021/07/23 08:13:44;;;;;;;9.40;5.18;;;;;;;23.78;54.78;95163.63;5090715;28;20040;-66
2021/07/23 08:16:12;;;;;;;14.00;4.15;;;;;;;23.88;54.01;95157.25;5112343;27;20044;-67
2021/07/23 08:18:40;;;;;;;15.27;4.55;;;;;;;23.88;54.73;95151.94;5109326;28;20040;-67
2021/07/23 08:21:07;;;;;;;7.75;4.07;;;;;;;24.08;54.12;95150.63;5093712;27;20052;-66
2021/07/23 08:23:35;;;;;;;16.05;4.18;;;;;;;24.17;53.41;95152.22;5092893;28;20031;-67
2021/07/23 08:26:04;;;;;;;17.65;4.15;;;;;;;24.17;54.20;95152.22;5109335;28;20036;-66
2021/07/23 08:28:32;;;;;;;16.85;4.13;;;;;;;24.30;53.20;95147.06;5109347;28;20039;-66
2021/07/23 08:31:00;;;;;;;18.60;5.35;;;;;;;24.39;54.71;95139.88;5090887;28;20058;-65
2021/07/23 08:33:29;;;;;;;18.23;4.45;;;;;;;24.56;50.20;95150.59;5090194;27;20046;-65
2021/07/23 08:35:59;;;;;;;33.60;8.07;;;;;;;24.70;50.88;95144.31;5110694;27;20573;-66
2021/07/23 08:38:29;;;;;;;19.73;5.97;;;;;;;24.78;50.14;95141.66;5109542;27;20047;-66
2021/07/23 08:41:00;;;;;;;17.73;3.33;;;;;;;24.89;47.62;95136.81;5091454;27;20039;-66
2021/07/23 08:43:32;;;;;;;11.55;4.43;;;;;;;25.28;45.65;95148.41;5109615;27;20511;-66
2021/07/23 08:46:05;;;;;;;8.85;3.35;;;;;;;25.36;44.29;95138.81;5110196;27;20035;-66
2021/07/23 08:48:38;;;;;;;7.67;3.50;;;;;;;25.66;44.29;95141.53;5111182;27;20070;-66
2021/07/23 08:51:16;;;;;;;8.80;3.03;;;;;;;25.68;44.56;95124.13;5075015;28;20461;-66
2021/07/23 08:53:50;;;;;;;8.73;3.25;;;;;;;25.62;43.56;95141.38;5108570;28;20044;-66
2021/07/23 08:56:21;;;;;;;;;;;;;;;25.57;45.20;95144.25;5113029;27;20508;-65
2021/07/23 08:58:56;;;;;;;18.35;4.20;;;;;;;25.38;45.61;95134.72;5089764;28;19924;-66
2021/07/23 09:01:50;;;;;;;16.80;3.42;;;;;;;25.37;44.81;95138.50;5108939;27;20051;-66
2021/07/23 09:04:39;;;;;;;20.23;3.83;;;;;;;25.46;46.12;95132.34;5108699;28;20414;-66
2021/07/23 09:07:17;;;;;;;11.90;3.53;;;;;;;25.68;42.61;95140.13;5090941;28;20112;-65
2021/07/23 09:10:06;;;;;;;22.17;4.00;;;;;;;25.93;44.09;95140.38;5107329;28;20042;-65
2021/07/23 09:12:52;;;;;;;16.55;4.28;;;;;;;25.88;41.53;95127.19;5109605;27;20511;-66
2021/07/23 09:15:46;;;;;;;9.27;3.75;;;;;;;25.94;41.89;95139.25;5090305;28;20036;-65
2021/07/23 09:18:41;;;;;;;12.70;3.95;;;;;;;25.93;40.62;95129.69;5108005;27;20097;-65
2021/07/23 09:21:39;;;;;;;7.72;3.60;;;;;;;26.17;41.07;95125.66;5090908;28;20039;-65
2021/07/23 09:24:57;;;;;;;6.50;3.63;;;;;;;26.62;38.94;95123.16;5108334;27;20512;-66
2021/07/23 09:28:13;;;;;;;7.50;3.17;;;;;;;26.87;38.39;95126.72;5108124;27;20050;-67
2021/07/23 09:31:34;;;;;;;7.13;3.35;;;;;;;26.92;39.11;95122.28;5109720;27;20417;-66
2021/07/23 09:35:23;;;;;;;10.50;4.18;;;;;;;26.82;37.90;95110.91;5090882;28;20048;-66
2021/07/23 09:38:42;;;;;;;8.00;3.63;;;;;;;26.95;37.41;95113.63;5106140;28;20497;-65
2021/07/23 09:42:13;;;;;;;13.50;3.75;;;;;;;27.01;38.44;95109.63;5106564;27;20051;-66
2021/07/23 09:45:43;;;;;;;6.90;3.90;;;;;;;26.85;37.29;95104.13;5108924;27;20513;-66
2021/07/23 09:49:53;;;;;;;7.35;3.58;;;;;;;27.34;37.06;95115.00;5106577;28;20128;-66
2021/07/23 09:53:13;;;;;;;;;;;;;;;27.67;38.39;95113.38;4977820;28;20050;-66
2021/07/23 09:55:59;;;;;;;6.50;3.22;;;;;;;28.16;36.03;95113.38;5016758;28;19986;-65
2021/07/23 09:58:27;;;;;;;13.85;3.08;;;;;;;28.49;31.31;95112.47;5041598;28;20056;-65
2021/07/23 10:00:58;;;;;;;5.22;3.15;;;;;;;29.03;31.12;95108.59;5042236;28;20045;-66
2021/07/23 10:03:27;;;;;;;7.15;3.38;;;;;;;29.20;31.02;95107.53;5042531;28;20091;-65
2021/07/23 10:06:02;;;;;;;4.72;3.15;;;;;;;28.92;29.21;95102.97;5025341;28;20124;-66
2021/07/23 10:08:35;;;;;;;11.45;3.25;;;;;;;28.77;32.51;95105.25;5043162;28;20132;-65
2021/07/23 10:11:03;;;;;;;4.13;3.38;;;;;;;28.83;32.98;95105.00;5042919;28;20144;-65
2021/07/23 10:13:34;;;;;;;6.32;3.50;;;;;;;28.71;30.73;95098.56;5041501;28;20055;-66
2021/07/23 10:16:04;;;;;;;3.95;3.40;;;;;;;28.29;33.81;95088.16;5042326;28;20518;-66
2021/07/23 10:18:34;;;;;;;6.05;3.55;;;;;;;28.38;34.57;95091.50;5041724;28;20052;-66
2021/07/23 10:21:03;;;;;;;8.40;3.55;;;;;;;28.90;33.05;95089.09;5043985;28;20526;-66
2021/07/23 10:23:32;;;;;;;4.43;3.20;;;;;;;28.92;33.21;95087.66;5045096;28;20040;-65
2021/07/23 10:26:00;;;;;;;8.95;3.60;;;;;;;29.15;33.57;95090.59;5042426;28;20040;-66
2021/07/23 10:28:36;;;;;;;7.50;3.70;;;;;;;29.58;34.42;95079.38;5046508;28;20037;-65
2021/07/23 10:31:18;;;;;;;3.75;3.40;;;;;;;30.22;32.29;95086.22;5046357;28;20144;-66
2021/07/23 10:33:50;;;;;;;4.70;3.03;;;;;;;30.53;29.98;95084.59;5026574;28;20076;-66
2021/07/23 10:36:25;;;;;;;5.20;3.38;;;;;;;30.72;30.57;95085.72;5044795;28;20135;-65
2021/07/23 10:39:04;;;;;;;6.28;3.55;;;;;;;30.74;28.43;95086.16;5027608;28;20053;-65
2021/07/23 10:41:32;;;;;;;3.45;2.92;;;;;;;30.84;29.09;95077.53;5026176;28;20049;-66
2021/07/23 10:43:59;;;;;;;5.93;3.40;;;;;;;30.74;28.10;95075.41;5026663;28;20037;-66
2021/07/23 10:46:46;;;;;;;7.32;3.50;;;;;;;31.06;27.19;95068.75;5043495;28;20124;-66
2021/07/23 10:49:31;;;;;;;3.58;3.03;;;;;;;31.02;27.53;95073.28;5077569;28;20052;-66
2021/07/23 10:51:59;;;;;;;5.82;2.95;;;;;;;31.24;27.31;95068.28;5106321;28;20521;-66
2021/07/23 10:54:47;;;;;;;4.43;3.70;;;;;;;31.43;26.13;95070.16;5113052;28;20425;-66
2021/07/23 10:57:14;;;;;;;5.85;3.40;;;;;;;31.47;28.89;95064.81;5104673;28;20054;-65
2021/07/23 10:59:47;;;;;;;5.22;3.30;;;;;;;31.60;27.01;95063.53;5106004;28;20049;-65
2021/07/23 11:02:14;;;;;;;7.72;3.38;;;;;;;31.70;25.83;95059.47;5106836;28;20040;-65
2021/07/23 11:04:45;;;;;;;7.45;4.03;;;;;;;31.77;27.32;95060.34;5089917;28;20051;-65
2021/07/23 11:07:15;;;;;;;3.63;3.28;;;;;;;31.57;27.29;95058.88;5105440;28;20493;-66
2021/07/23 11:09:44;;;;;;;6.50;3.40;;;;;;;30.97;28.14;95052.06;5109720;28;20032;-66
2021/07/23 11:12:21;;;;;;;4.97;2.95;;;;;;;30.62;25.99;95039.47;5107869;28;20050;-66
2021/07/23 11:14:53;;;;;;;5.78;3.15;;;;;;;31.62;26.32;95042.41;5088560;28;20047;-66
2021/07/23 11:17:21;;;;;;;4.00;3.33;;;;;;;32.14;25.03;95043.59;5110192;27;20507;-65
2021/07/23 11:19:52;;;;;;;4.18;3.50;;;;;;;32.22;24.61;95038.28;5111243;27;20077;-65
2021/07/23 11:22:23;;;;;;;6.35;3.50;;;;;;;32.17;25.58;95037.44;5108730;28;20051;-65
2021/07/23 11:24:54;;;;;;;4.55;3.30;;;;;;;31.51;25.03;95036.06;5108726;27;20489;-65
2021/07/23 11:27:26;;;;;;;5.45;3.30;;;;;;;31.16;26.10;95045.88;5109906;28;20043;-65
2021/07/23 11:29:54;;;;;;;5.07;3.90;;;;;;;30.88;28.24;95040.72;5090581;28;20516;-66
2021/07/23 11:32:21;;;;;;;4.72;3.25;;;;;;;30.58;28.39;95038.63;5109366;27;20636;-65
2021/07/23 11:35:02;;;;;;;6.65;3.53;;;;;;;30.15;27.45;95037.72;5109681;28;20035;-66
2021/07/23 11:37:29;;;;;;;5.25;3.70;;;;;;;30.22;31.96;95037.88;5108230;27;20035;-65
2021/07/23 11:40:01;;;;;;;7.88;3.63;;;;;;;29.87;30.33;95038.69;5108865;27;20136;-65
2021/07/23 11:42:29;;;;;;;6.15;3.70;;;;;;;29.82;29.33;95033.59;5109051;27;20515;-65
2021/07/23 11:44:58;;;;;;;6.13;3.40;;;;;;;29.71;31.15;95033.31;5110226;27;20054;-66
2021/07/23 11:47:27;;;;;;;6.47;3.60;;;;;;;29.84;30.26;95028.63;5109842;27;20425;-66
2021/07/23 11:50:02;;;;;;;4.47;2.75;;;;;;;30.73;27.93;95017.41;5107999;28;20056;-65
2021/07/23 11:52:29;;;;;;;12.35;3.95;;;;;;;30.94;27.25;95027.81;5089302;28;20054;-66